<?xml version="1.0" encoding="utf-8"?>
<gpx xmlns:xsi="http://www.w3.org/2001/XMLSchema-instance" xmlns:xsd="http://www.w3.org/2001/XMLSchema" version="1.1" creator="Shapelink.com" xmlns="http://www.topografix.com/GPX/1/1" xmlns:gpxtpx="http://www.garmin.com/xmlschemas/TrackPointExtension/v1">
  <metadata>
    <name>Cykling - Mtb 3.33 km, 2017-08-05</name>
    <desc></desc>
    <author><name>Alexander Engvall</name></author> 
    <time>2017-08-05T16:06:07Z</time>
  </metadata>
  <trk>
    <name>Cykling - Mtb 3.33 km, 2017-08-05</name>
    <trkseg>
      <trkpt lat="59.219938684264" lon="17.907679737018">
        <ele>121.4</ele>
        <time>2017-08-05T16:06:07Z</time>
      </trkpt>
      <trkpt lat="59.22000020741" lon="17.907767830787">
        <ele>121</ele>
        <time>2017-08-05T16:06:08Z</time>
      </trkpt>
      <trkpt lat="59.220018563771" lon="17.907808818278">
        <ele>121</ele>
        <time>2017-08-05T16:06:11Z</time>
      </trkpt>
      <trkpt lat="59.220113614517" lon="17.908007720765">
        <ele>121</ele>
        <time>2017-08-05T16:06:16Z</time>
      </trkpt>
      <trkpt lat="59.220317462325" lon="17.908424636471">
        <ele>121</ele>
        <time>2017-08-05T16:06:25Z</time>
      </trkpt>
      <trkpt lat="59.220437574952" lon="17.908587832064">
        <ele>121</ele>
        <time>2017-08-05T16:06:30Z</time>
      </trkpt>
      <trkpt lat="59.220589119704" lon="17.908647846468">
        <ele>121</ele>
        <time>2017-08-05T16:06:36Z</time>
      </trkpt>
      <trkpt lat="59.220687774667" lon="17.908781537773">
        <ele>121</ele>
        <time>2017-08-05T16:06:41Z</time>
      </trkpt>
      <trkpt lat="59.220741502646" lon="17.909009357815">
        <ele>121</ele>
        <time>2017-08-05T16:06:46Z</time>
      </trkpt>
      <trkpt lat="59.220795482082" lon="17.90932409816">
        <ele>121.4</ele>
        <time>2017-08-05T16:06:52Z</time>
      </trkpt>
      <trkpt lat="59.220802690516" lon="17.909375646845">
        <ele>121.8</ele>
        <time>2017-08-05T16:06:53Z</time>
      </trkpt>
      <trkpt lat="59.220811156235" lon="17.909423172218">
        <ele>122.2</ele>
        <time>2017-08-05T16:06:54Z</time>
      </trkpt>
      <trkpt lat="59.220820963058" lon="17.909473212161">
        <ele>122.6</ele>
        <time>2017-08-05T16:06:55Z</time>
      </trkpt>
      <trkpt lat="59.220834625555" lon="17.909527443054">
        <ele>123</ele>
        <time>2017-08-05T16:06:56Z</time>
      </trkpt>
      <trkpt lat="59.22086605768" lon="17.909636575392">
        <ele>123</ele>
        <time>2017-08-05T16:06:58Z</time>
      </trkpt>
      <trkpt lat="59.220931604138" lon="17.909953746488">
        <ele>123</ele>
        <time>2017-08-05T16:07:04Z</time>
      </trkpt>
      <trkpt lat="59.221044005417" lon="17.910370913651">
        <ele>123</ele>
        <time>2017-08-05T16:07:10Z</time>
      </trkpt>
      <trkpt lat="59.221021206649" lon="17.910675428078">
        <ele>123</ele>
        <time>2017-08-05T16:07:14Z</time>
      </trkpt>
      <trkpt lat="59.220980554434" lon="17.910852621444">
        <ele>123</ele>
        <time>2017-08-05T16:07:17Z</time>
      </trkpt>
      <trkpt lat="59.221022128658" lon="17.911042806755">
        <ele>123</ele>
        <time>2017-08-05T16:07:21Z</time>
      </trkpt>
      <trkpt lat="59.220985835031" lon="17.911178593535">
        <ele>123</ele>
        <time>2017-08-05T16:07:24Z</time>
      </trkpt>
      <trkpt lat="59.220921294401" lon="17.911284289294">
        <ele>123</ele>
        <time>2017-08-05T16:07:27Z</time>
      </trkpt>
      <trkpt lat="59.220885168412" lon="17.91137850185">
        <ele>123</ele>
        <time>2017-08-05T16:07:29Z</time>
      </trkpt>
      <trkpt lat="59.220891119561" lon="17.911576230871">
        <ele>123</ele>
        <time>2017-08-05T16:07:33Z</time>
      </trkpt>
      <trkpt lat="59.220923473695" lon="17.911668850866">
        <ele>123</ele>
        <time>2017-08-05T16:07:35Z</time>
      </trkpt>
      <trkpt lat="59.220996647682" lon="17.911853671761">
        <ele>123</ele>
        <time>2017-08-05T16:07:39Z</time>
      </trkpt>
      <trkpt lat="59.221107707857" lon="17.912148211727">
        <ele>123</ele>
        <time>2017-08-05T16:07:46Z</time>
      </trkpt>
      <trkpt lat="59.221223294258" lon="17.912463203529">
        <ele>123.4</ele>
        <time>2017-08-05T16:07:53Z</time>
      </trkpt>
      <trkpt lat="59.221237878764" lon="17.9125058674">
        <ele>123.8</ele>
        <time>2017-08-05T16:07:54Z</time>
      </trkpt>
      <trkpt lat="59.221254474926" lon="17.912550459108">
        <ele>124.2</ele>
        <time>2017-08-05T16:07:55Z</time>
      </trkpt>
      <trkpt lat="59.221271993097" lon="17.912594380264">
        <ele>124.6</ele>
        <time>2017-08-05T16:07:56Z</time>
      </trkpt>
      <trkpt lat="59.221289092173" lon="17.912636876497">
        <ele>125.2</ele>
        <time>2017-08-05T16:07:57Z</time>
      </trkpt>
      <trkpt lat="59.221338461564" lon="17.912759252237">
        <ele>125.2</ele>
        <time>2017-08-05T16:08:00Z</time>
      </trkpt>
      <trkpt lat="59.221466453177" lon="17.913020348422">
        <ele>125.2</ele>
        <time>2017-08-05T16:08:07Z</time>
      </trkpt>
      <trkpt lat="59.221629229675" lon="17.913203073842">
        <ele>125.2</ele>
        <time>2017-08-05T16:08:14Z</time>
      </trkpt>
      <trkpt lat="59.221741714773" lon="17.913404574718">
        <ele>125.2</ele>
        <time>2017-08-05T16:08:20Z</time>
      </trkpt>
      <trkpt lat="59.221761663695" lon="17.913400467587">
        <ele>125.2</ele>
        <time>2017-08-05T16:08:21Z</time>
      </trkpt>
      <trkpt lat="59.221853948414" lon="17.91326610573">
        <ele>126</ele>
        <time>2017-08-05T16:08:28Z</time>
      </trkpt>
      <trkpt lat="59.221865934531" lon="17.913241630582">
        <ele>126.4</ele>
        <time>2017-08-05T16:08:29Z</time>
      </trkpt>
      <trkpt lat="59.221880602856" lon="17.913222100755">
        <ele>126.8</ele>
        <time>2017-08-05T16:08:30Z</time>
      </trkpt>
      <trkpt lat="59.221893510982" lon="17.91320240329">
        <ele>127.2</ele>
        <time>2017-08-05T16:08:31Z</time>
      </trkpt>
      <trkpt lat="59.221931229532" lon="17.913148004759">
        <ele>127.2</ele>
        <time>2017-08-05T16:08:34Z</time>
      </trkpt>
      <trkpt lat="59.221993004135" lon="17.913066281234">
        <ele>127.2</ele>
        <time>2017-08-05T16:08:39Z</time>
      </trkpt>
      <trkpt lat="59.222012533962" lon="17.913025042286">
        <ele>127.6</ele>
        <time>2017-08-05T16:08:41Z</time>
      </trkpt>
      <trkpt lat="59.222028124296" lon="17.913006015373">
        <ele>128</ele>
        <time>2017-08-05T16:08:42Z</time>
      </trkpt>
      <trkpt lat="59.222041116241" lon="17.912984222433">
        <ele>128.4</ele>
        <time>2017-08-05T16:08:43Z</time>
      </trkpt>
      <trkpt lat="59.222054946376" lon="17.912962513312">
        <ele>128.8</ele>
        <time>2017-08-05T16:08:44Z</time>
      </trkpt>
      <trkpt lat="59.222065675208" lon="17.912941223286">
        <ele>129.2</ele>
        <time>2017-08-05T16:08:45Z</time>
      </trkpt>
      <trkpt lat="59.222103645215" lon="17.912817338804">
        <ele>129.2</ele>
        <time>2017-08-05T16:08:50Z</time>
      </trkpt>
      <trkpt lat="59.222115966608" lon="17.912612568987">
        <ele>129.2</ele>
        <time>2017-08-05T16:08:56Z</time>
      </trkpt>
      <trkpt lat="59.222096017686" lon="17.912364632385">
        <ele>129.2</ele>
        <time>2017-08-05T16:09:02Z</time>
      </trkpt>
      <trkpt lat="59.222081349361" lon="17.912241921369">
        <ele>129.2</ele>
        <time>2017-08-05T16:09:05Z</time>
      </trkpt>
      <trkpt lat="59.222066429579" lon="17.912167657735">
        <ele>129.2</ele>
        <time>2017-08-05T16:09:07Z</time>
      </trkpt>
      <trkpt lat="59.222006331356" lon="17.911886696447">
        <ele>129.2</ele>
        <time>2017-08-05T16:09:14Z</time>
      </trkpt>
      <trkpt lat="59.221965427684" lon="17.911619984389">
        <ele>129.2</ele>
        <time>2017-08-05T16:09:19Z</time>
      </trkpt>
      <trkpt lat="59.221881273408" lon="17.911171049825">
        <ele>129.2</ele>
        <time>2017-08-05T16:09:27Z</time>
      </trkpt>
      <trkpt lat="59.221826791058" lon="17.910856058023">
        <ele>129.2</ele>
        <time>2017-08-05T16:09:33Z</time>
      </trkpt>
      <trkpt lat="59.221807596507" lon="17.910764276218">
        <ele>129.2</ele>
        <time>2017-08-05T16:09:35Z</time>
      </trkpt>
      <trkpt lat="59.221794353105" lon="17.910659921563">
        <ele>129.2</ele>
        <time>2017-08-05T16:09:37Z</time>
      </trkpt>
      <trkpt lat="59.221738278194" lon="17.910382564492">
        <ele>129.2</ele>
        <time>2017-08-05T16:09:42Z</time>
      </trkpt>
      <trkpt lat="59.221694608495" lon="17.91010445305">
        <ele>129.2</ele>
        <time>2017-08-05T16:09:47Z</time>
      </trkpt>
      <trkpt lat="59.221652112262" lon="17.909775295837">
        <ele>129.2</ele>
        <time>2017-08-05T16:09:53Z</time>
      </trkpt>
      <trkpt lat="59.221607772011" lon="17.909457705646">
        <ele>129.2</ele>
        <time>2017-08-05T16:09:59Z</time>
      </trkpt>
      <trkpt lat="59.221566533063" lon="17.90917238577">
        <ele>129.2</ele>
        <time>2017-08-05T16:10:04Z</time>
      </trkpt>
      <trkpt lat="59.221518756233" lon="17.908744322137">
        <ele>129.2</ele>
        <time>2017-08-05T16:10:12Z</time>
      </trkpt>
      <trkpt lat="59.221481205321" lon="17.908452632017">
        <ele>129.2</ele>
        <time>2017-08-05T16:10:18Z</time>
      </trkpt>
      <trkpt lat="59.221476343819" lon="17.908241911051">
        <ele>129.2</ele>
        <time>2017-08-05T16:10:23Z</time>
      </trkpt>
      <trkpt lat="59.221504590822" lon="17.907960698306">
        <ele>129.2</ele>
        <time>2017-08-05T16:10:28Z</time>
      </trkpt>
      <trkpt lat="59.221486737375" lon="17.907699518302">
        <ele>129.2</ele>
        <time>2017-08-05T16:10:33Z</time>
      </trkpt>
      <trkpt lat="59.221453796508" lon="17.907516289968">
        <ele>128.8</ele>
        <time>2017-08-05T16:10:36Z</time>
      </trkpt>
      <trkpt lat="59.221442983857" lon="17.907447223112">
        <ele>128.4</ele>
        <time>2017-08-05T16:10:37Z</time>
      </trkpt>
      <trkpt lat="59.221432087387" lon="17.907376731333">
        <ele>128</ele>
        <time>2017-08-05T16:10:38Z</time>
      </trkpt>
      <trkpt lat="59.22142345403" lon="17.907312023065">
        <ele>127.6</ele>
        <time>2017-08-05T16:10:39Z</time>
      </trkpt>
      <trkpt lat="59.221417838157" lon="17.907252260118">
        <ele>127</ele>
        <time>2017-08-05T16:10:40Z</time>
      </trkpt>
      <trkpt lat="59.221375258105" lon="17.906977501436">
        <ele>127</ele>
        <time>2017-08-05T16:10:45Z</time>
      </trkpt>
      <trkpt lat="59.2213337677" lon="17.90675336943">
        <ele>127</ele>
        <time>2017-08-05T16:10:49Z</time>
      </trkpt>
      <trkpt lat="59.221299234272" lon="17.906525130293">
        <ele>127</ele>
        <time>2017-08-05T16:10:54Z</time>
      </trkpt>
      <trkpt lat="59.221262186274" lon="17.906263782651">
        <ele>127</ele>
        <time>2017-08-05T16:11:00Z</time>
      </trkpt>
      <trkpt lat="59.221232933443" lon="17.905974188006">
        <ele>127.4</ele>
        <time>2017-08-05T16:11:06Z</time>
      </trkpt>
      <trkpt lat="59.221228742493" lon="17.905927919918">
        <ele>127.8</ele>
        <time>2017-08-05T16:11:07Z</time>
      </trkpt>
      <trkpt lat="59.221220444412" lon="17.905891458653">
        <ele>128.2</ele>
        <time>2017-08-05T16:11:08Z</time>
      </trkpt>
      <trkpt lat="59.221209212666" lon="17.905854997388">
        <ele>128.6</ele>
        <time>2017-08-05T16:11:09Z</time>
      </trkpt>
      <trkpt lat="59.221202926241" lon="17.905820799236">
        <ele>129</ele>
        <time>2017-08-05T16:11:10Z</time>
      </trkpt>
      <trkpt lat="59.221200411671" lon="17.905781823401">
        <ele>129</ele>
        <time>2017-08-05T16:11:11Z</time>
      </trkpt>
      <trkpt lat="59.221169901555" lon="17.905523577062">
        <ele>129</ele>
        <time>2017-08-05T16:11:17Z</time>
      </trkpt>
      <trkpt lat="59.221148946805" lon="17.905337498882">
        <ele>129.6</ele>
        <time>2017-08-05T16:11:21Z</time>
      </trkpt>
      <trkpt lat="59.221142492742" lon="17.905287878034">
        <ele>130</ele>
        <time>2017-08-05T16:11:22Z</time>
      </trkpt>
      <trkpt lat="59.221136373955" lon="17.905238927738">
        <ele>130.4</ele>
        <time>2017-08-05T16:11:23Z</time>
      </trkpt>
      <trkpt lat="59.221129500797" lon="17.905192156736">
        <ele>130.8</ele>
        <time>2017-08-05T16:11:24Z</time>
      </trkpt>
      <trkpt lat="59.22112086744" lon="17.905145385734">
        <ele>131.2</ele>
        <time>2017-08-05T16:11:25Z</time>
      </trkpt>
      <trkpt lat="59.22109236898" lon="17.904960397201">
        <ele>131.2</ele>
        <time>2017-08-05T16:11:29Z</time>
      </trkpt>
      <trkpt lat="59.221063199968" lon="17.904722518879">
        <ele>131.2</ele>
        <time>2017-08-05T16:11:34Z</time>
      </trkpt>
      <trkpt lat="59.22102279921" lon="17.904357738591">
        <ele>131.2</ele>
        <time>2017-08-05T16:11:42Z</time>
      </trkpt>
      <trkpt lat="59.220964628824" lon="17.904057666571">
        <ele>131.2</ele>
        <time>2017-08-05T16:11:48Z</time>
      </trkpt>
      <trkpt lat="59.220954822001" lon="17.903973428476">
        <ele>131.6</ele>
        <time>2017-08-05T16:11:50Z</time>
      </trkpt>
      <trkpt lat="59.220945601911" lon="17.903928501492">
        <ele>132</ele>
        <time>2017-08-05T16:11:51Z</time>
      </trkpt>
      <trkpt lat="59.220939315486" lon="17.903886005259">
        <ele>132.4</ele>
        <time>2017-08-05T16:11:52Z</time>
      </trkpt>
      <trkpt lat="59.220935124536" lon="17.903843257569">
        <ele>132.8</ele>
        <time>2017-08-05T16:11:53Z</time>
      </trkpt>
      <trkpt lat="59.220930346853" lon="17.903802605354">
        <ele>133.2</ele>
        <time>2017-08-05T16:11:54Z</time>
      </trkpt>
      <trkpt lat="59.22091131994" lon="17.903572354561">
        <ele>133.2</ele>
        <time>2017-08-05T16:11:59Z</time>
      </trkpt>
      <trkpt lat="59.220868236974" lon="17.903278652785">
        <ele>133.2</ele>
        <time>2017-08-05T16:12:05Z</time>
      </trkpt>
      <trkpt lat="59.22081157533" lon="17.902965337363">
        <ele>133.2</ele>
        <time>2017-08-05T16:12:12Z</time>
      </trkpt>
      <trkpt lat="59.220729181253" lon="17.902702816255">
        <ele>133.2</ele>
        <time>2017-08-05T16:12:17Z</time>
      </trkpt>
      <trkpt lat="59.220700766612" lon="17.902544230707">
        <ele>133.2</ele>
        <time>2017-08-05T16:12:20Z</time>
      </trkpt>
      <trkpt lat="59.220681320604" lon="17.902424788632">
        <ele>133.2</ele>
        <time>2017-08-05T16:12:22Z</time>
      </trkpt>
      <trkpt lat="59.220644021149" lon="17.902227646344">
        <ele>133.2</ele>
        <time>2017-08-05T16:12:25Z</time>
      </trkpt>
      <trkpt lat="59.220612505205" lon="17.902078364705">
        <ele>133.2</ele>
        <time>2017-08-05T16:12:27Z</time>
      </trkpt>
      <trkpt lat="59.220583755288" lon="17.901927406686">
        <ele>133.2</ele>
        <time>2017-08-05T16:12:29Z</time>
      </trkpt>
      <trkpt lat="59.220564141642" lon="17.901843587686">
        <ele>133.2</ele>
        <time>2017-08-05T16:12:30Z</time>
      </trkpt>
      <trkpt lat="59.220543186892" lon="17.901752560252">
        <ele>132.8</ele>
        <time>2017-08-05T16:12:31Z</time>
      </trkpt>
      <trkpt lat="59.220522818875" lon="17.901655162574">
        <ele>132.4</ele>
        <time>2017-08-05T16:12:32Z</time>
      </trkpt>
      <trkpt lat="59.22049725408" lon="17.901552316661">
        <ele>131.8</ele>
        <time>2017-08-05T16:12:33Z</time>
      </trkpt>
      <trkpt lat="59.22045953553" lon="17.901453158784">
        <ele>131.2</ele>
        <time>2017-08-05T16:12:34Z</time>
      </trkpt>
      <trkpt lat="59.220431372346" lon="17.901352324527">
        <ele>130</ele>
        <time>2017-08-05T16:12:35Z</time>
      </trkpt>
      <trkpt lat="59.220409160311" lon="17.9012573576">
        <ele>129.6</ele>
        <time>2017-08-05T16:12:36Z</time>
      </trkpt>
      <trkpt lat="59.220391977416" lon="17.90116348032">
        <ele>129</ele>
        <time>2017-08-05T16:12:37Z</time>
      </trkpt>
      <trkpt lat="59.22036565825" lon="17.900917974469">
        <ele>129</ele>
        <time>2017-08-05T16:12:40Z</time>
      </trkpt>
      <trkpt lat="59.220331124822" lon="17.9007460617">
        <ele>129</ele>
        <time>2017-08-05T16:12:43Z</time>
      </trkpt>
      <trkpt lat="59.220306314398" lon="17.900698620146">
        <ele>129</ele>
        <time>2017-08-05T16:12:44Z</time>
      </trkpt>
      <trkpt lat="59.220214951688" lon="17.900620500838">
        <ele>129</ele>
        <time>2017-08-05T16:12:47Z</time>
      </trkpt>
      <trkpt lat="59.220194416033" lon="17.900589739265">
        <ele>129</ele>
        <time>2017-08-05T16:12:49Z</time>
      </trkpt>
      <trkpt lat="59.220193410205" lon="17.900577250234">
        <ele>129</ele>
        <time>2017-08-05T16:12:50Z</time>
      </trkpt>
      <trkpt lat="59.220193410205" lon="17.900577250234">
        <ele>129</ele>
        <time>2017-08-05T16:12:51Z</time>
      </trkpt>
      <trkpt lat="59.220194164576" lon="17.900535340734">
        <ele>129</ele>
        <time>2017-08-05T16:12:56Z</time>
      </trkpt>
      <trkpt lat="59.220184860667" lon="17.90047281176">
        <ele>129</ele>
        <time>2017-08-05T16:12:58Z</time>
      </trkpt>
      <trkpt lat="59.22014689066" lon="17.900423861464">
        <ele>129</ele>
        <time>2017-08-05T16:13:00Z</time>
      </trkpt>
      <trkpt lat="59.220090061378" lon="17.900383209249">
        <ele>129</ele>
        <time>2017-08-05T16:13:02Z</time>
      </trkpt>
      <trkpt lat="59.220020575427" lon="17.900342557034">
        <ele>128.4</ele>
        <time>2017-08-05T16:13:04Z</time>
      </trkpt>
      <trkpt lat="59.21998511999" lon="17.900317159877">
        <ele>128</ele>
        <time>2017-08-05T16:13:05Z</time>
      </trkpt>
      <trkpt lat="59.219948994001" lon="17.900296708041">
        <ele>127.6</ele>
        <time>2017-08-05T16:13:06Z</time>
      </trkpt>
      <trkpt lat="59.219913370926" lon="17.900273909273">
        <ele>127.2</ele>
        <time>2017-08-05T16:13:07Z</time>
      </trkpt>
      <trkpt lat="59.219877999308" lon="17.900253625075">
        <ele>126.8</ele>
        <time>2017-08-05T16:13:08Z</time>
      </trkpt>
      <trkpt lat="59.219735926103" lon="17.900143570728">
        <ele>126.2</ele>
        <time>2017-08-05T16:13:12Z</time>
      </trkpt>
      <trkpt lat="59.219696447354" lon="17.900108869662">
        <ele>125.8</ele>
        <time>2017-08-05T16:13:13Z</time>
      </trkpt>
      <trkpt lat="59.219648502886" lon="17.900075593519">
        <ele>125.4</ele>
        <time>2017-08-05T16:13:14Z</time>
      </trkpt>
      <trkpt lat="59.219598379124" lon="17.900043574661">
        <ele>125</ele>
        <time>2017-08-05T16:13:15Z</time>
      </trkpt>
      <trkpt lat="59.219546662801" lon="17.900009125052">
        <ele>124.4</ele>
        <time>2017-08-05T16:13:16Z</time>
      </trkpt>
      <trkpt lat="59.219499556523" lon="17.899977106194">
        <ele>124</ele>
        <time>2017-08-05T16:13:17Z</time>
      </trkpt>
      <trkpt lat="59.219455300091" lon="17.899951709037">
        <ele>123.4</ele>
        <time>2017-08-05T16:13:18Z</time>
      </trkpt>
      <trkpt lat="59.219413222953" lon="17.899925306052">
        <ele>123</ele>
        <time>2017-08-05T16:13:19Z</time>
      </trkpt>
      <trkpt lat="59.219373995661" lon="17.899902926379">
        <ele>122.4</ele>
        <time>2017-08-05T16:13:20Z</time>
      </trkpt>
      <trkpt lat="59.219154138424" lon="17.899708466299">
        <ele>122.4</ele>
        <time>2017-08-05T16:13:27Z</time>
      </trkpt>
      <trkpt lat="59.219148941646" lon="17.899663623134">
        <ele>122.4</ele>
        <time>2017-08-05T16:13:28Z</time>
      </trkpt>
      <trkpt lat="59.21912010791" lon="17.899570500225">
        <ele>122.4</ele>
        <time>2017-08-05T16:13:31Z</time>
      </trkpt>
      <trkpt lat="59.219059171497" lon="17.899534541874">
        <ele>122.4</ele>
        <time>2017-08-05T16:13:34Z</time>
      </trkpt>
      <trkpt lat="59.219023967517" lon="17.899559603755">
        <ele>122.4</ele>
        <time>2017-08-05T16:13:36Z</time>
      </trkpt>
      <trkpt lat="59.218926318382" lon="17.899596567934">
        <ele>122.4</ele>
        <time>2017-08-05T16:13:41Z</time>
      </trkpt>
      <trkpt lat="59.218755159984" lon="17.899506881604">
        <ele>122.4</ele>
        <time>2017-08-05T16:13:47Z</time>
      </trkpt>
      <trkpt lat="59.218685422576" lon="17.899467654312">
        <ele>121.6</ele>
        <time>2017-08-05T16:13:49Z</time>
      </trkpt>
      <trkpt lat="59.21864736875" lon="17.899449297951">
        <ele>121.2</ele>
        <time>2017-08-05T16:13:50Z</time>
      </trkpt>
      <trkpt lat="59.2186096502" lon="17.89944183806">
        <ele>120.8</ele>
        <time>2017-08-05T16:13:51Z</time>
      </trkpt>
      <trkpt lat="59.218568746528" lon="17.899428007925">
        <ele>120.2</ele>
        <time>2017-08-05T16:13:52Z</time>
      </trkpt>
      <trkpt lat="59.218386272565" lon="17.899431193047">
        <ele>120.2</ele>
        <time>2017-08-05T16:13:57Z</time>
      </trkpt>
      <trkpt lat="59.218154261573" lon="17.899512916572">
        <ele>120.2</ele>
        <time>2017-08-05T16:14:04Z</time>
      </trkpt>
      <trkpt lat="59.217913030491" lon="17.899666640618">
        <ele>120.2</ele>
        <time>2017-08-05T16:14:12Z</time>
      </trkpt>
      <trkpt lat="59.217760982825" lon="17.899690193757">
        <ele>120.2</ele>
        <time>2017-08-05T16:14:18Z</time>
      </trkpt>
      <trkpt lat="59.217700465507" lon="17.899693965612">
        <ele>120.2</ele>
        <time>2017-08-05T16:14:20Z</time>
      </trkpt>
      <trkpt lat="59.217641792207" lon="17.899730678334">
        <ele>120.2</ele>
        <time>2017-08-05T16:14:22Z</time>
      </trkpt>
      <trkpt lat="59.217450014335" lon="17.899893790108">
        <ele>120.2</ele>
        <time>2017-08-05T16:14:29Z</time>
      </trkpt>
      <trkpt lat="59.217208615615" lon="17.900047514154">
        <ele>120.2</ele>
        <time>2017-08-05T16:14:38Z</time>
      </trkpt>
      <trkpt lat="59.217011976241" lon="17.900033516381">
        <ele>120.2</ele>
        <time>2017-08-05T16:14:44Z</time>
      </trkpt>
      <trkpt lat="59.216870657407" lon="17.899945925526">
        <ele>120.2</ele>
        <time>2017-08-05T16:14:48Z</time>
      </trkpt>
      <trkpt lat="59.216827993536" lon="17.899925641328">
        <ele>120.2</ele>
        <time>2017-08-05T16:14:49Z</time>
      </trkpt>
      <trkpt lat="59.216697571172" lon="17.899863782906">
        <ele>120.2</ele>
        <time>2017-08-05T16:14:52Z</time>
      </trkpt>
      <trkpt lat="59.216566478256" lon="17.899796308611">
        <ele>120.2</ele>
        <time>2017-08-05T16:14:55Z</time>
      </trkpt>
      <trkpt lat="59.216307729003" lon="17.899659096908">
        <ele>119.8</ele>
        <time>2017-08-05T16:15:01Z</time>
      </trkpt>
      <trkpt lat="59.216262802019" lon="17.899634537941">
        <ele>119.4</ele>
        <time>2017-08-05T16:15:02Z</time>
      </trkpt>
      <trkpt lat="59.216220641062" lon="17.899608805508">
        <ele>118.6</ele>
        <time>2017-08-05T16:15:03Z</time>
      </trkpt>
      <trkpt lat="59.216183844521" lon="17.899579468858">
        <ele>118.2</ele>
        <time>2017-08-05T16:15:04Z</time>
      </trkpt>
      <trkpt lat="59.21599617378" lon="17.899408729555">
        <ele>118.2</ele>
        <time>2017-08-05T16:15:10Z</time>
      </trkpt>
      <trkpt lat="59.21586290157" lon="17.899322647442">
        <ele>118.2</ele>
        <time>2017-08-05T16:15:14Z</time>
      </trkpt>
      <trkpt lat="59.215836666223" lon="17.899372603566">
        <ele>118.2</ele>
        <time>2017-08-05T16:15:15Z</time>
      </trkpt>
      <trkpt lat="59.215713536112" lon="17.899573350071">
        <ele>118.2</ele>
        <time>2017-08-05T16:15:19Z</time>
      </trkpt>
      <trkpt lat="59.215699203063" lon="17.899610146612">
        <ele>118.2</ele>
        <time>2017-08-05T16:15:20Z</time>
      </trkpt>
      <trkpt lat="59.215698364873" lon="17.899733863456">
        <ele>118.2</ele>
        <time>2017-08-05T16:15:22Z</time>
      </trkpt>
      <trkpt lat="59.215752009033" lon="17.899886833131">
        <ele>118.2</ele>
        <time>2017-08-05T16:15:26Z</time>
      </trkpt>
      <trkpt lat="59.215755194155" lon="17.900002084256">
        <ele>118.2</ele>
        <time>2017-08-05T16:15:29Z</time>
      </trkpt>
      <trkpt lat="59.215745890246" lon="17.90003779115">
        <ele>118.2</ele>
        <time>2017-08-05T16:15:30Z</time>
      </trkpt>
      <trkpt lat="59.215735999604" lon="17.900063272126">
        <ele>118.2</ele>
        <time>2017-08-05T16:15:31Z</time>
      </trkpt>
      <trkpt lat="59.215703561651" lon="17.900184139124">
        <ele>118.2</ele>
        <time>2017-08-05T16:15:36Z</time>
      </trkpt>
      <trkpt lat="59.215688474231" lon="17.900246416641">
        <ele>118.2</ele>
        <time>2017-08-05T16:15:38Z</time>
      </trkpt>
      <trkpt lat="59.215669614956" lon="17.900257983663">
        <ele>118.6</ele>
        <time>2017-08-05T16:15:39Z</time>
      </trkpt>
      <trkpt lat="59.215649414577" lon="17.900254295627">
        <ele>119</ele>
        <time>2017-08-05T16:15:40Z</time>
      </trkpt>
      <trkpt lat="59.215636003537" lon="17.900235017257">
        <ele>119.6</ele>
        <time>2017-08-05T16:15:41Z</time>
      </trkpt>
      <trkpt lat="59.215625274705" lon="17.900229652841">
        <ele>120</ele>
        <time>2017-08-05T16:15:42Z</time>
      </trkpt>
      <trkpt lat="59.215617479538" lon="17.900253625075">
        <ele>120.4</ele>
        <time>2017-08-05T16:15:43Z</time>
      </trkpt>
      <trkpt lat="59.215606583068" lon="17.900239208207">
        <ele>120.4</ele>
        <time>2017-08-05T16:15:57Z</time>
      </trkpt>
      <trkpt lat="59.215573474563" lon="17.900183384753">
        <ele>120.4</ele>
        <time>2017-08-05T16:16:00Z</time>
      </trkpt>
      <trkpt lat="59.215562661912" lon="17.900140217968">
        <ele>120.4</ele>
        <time>2017-08-05T16:16:02Z</time>
      </trkpt>
      <trkpt lat="59.215558135686" lon="17.900088836921">
        <ele>120.4</ele>
        <time>2017-08-05T16:16:04Z</time>
      </trkpt>
      <trkpt lat="59.215550591976" lon="17.899962437869">
        <ele>120.4</ele>
        <time>2017-08-05T16:16:08Z</time>
      </trkpt>
      <trkpt lat="59.215557465134" lon="17.899943578594">
        <ele>120.4</ele>
        <time>2017-08-05T16:16:09Z</time>
      </trkpt>
      <trkpt lat="59.215606918344" lon="17.899847605839">
        <ele>120.4</ele>
        <time>2017-08-05T16:16:15Z</time>
      </trkpt>
      <trkpt lat="59.215611863665" lon="17.899824723252">
        <ele>120.4</ele>
        <time>2017-08-05T16:16:16Z</time>
      </trkpt>
      <trkpt lat="59.215595183684" lon="17.899780802096">
        <ele>120.4</ele>
        <time>2017-08-05T16:16:19Z</time>
      </trkpt>
      <trkpt lat="59.215578671341" lon="17.899770240902">
        <ele>120.4</ele>
        <time>2017-08-05T16:16:21Z</time>
      </trkpt>
      <trkpt lat="59.215555704935" lon="17.899817682456">
        <ele>119.2</ele>
        <time>2017-08-05T16:16:47Z</time>
      </trkpt>
      <trkpt lat="59.215554699107" lon="17.899835200627">
        <ele>118.8</ele>
        <time>2017-08-05T16:16:48Z</time>
      </trkpt>
      <trkpt lat="59.21555612403" lon="17.899853137893">
        <ele>118.2</ele>
        <time>2017-08-05T16:16:49Z</time>
      </trkpt>
      <trkpt lat="59.215600631919" lon="17.89994810482">
        <ele>118.2</ele>
        <time>2017-08-05T16:16:54Z</time>
      </trkpt>
      <trkpt lat="59.215609013819" lon="17.899971909416">
        <ele>118.2</ele>
        <time>2017-08-05T16:16:55Z</time>
      </trkpt>
      <trkpt lat="59.215627537818" lon="17.900007029577">
        <ele>118.2</ele>
        <time>2017-08-05T16:16:57Z</time>
      </trkpt>
      <trkpt lat="59.215666178377" lon="17.900016668762">
        <ele>118.2</ele>
        <time>2017-08-05T16:16:59Z</time>
      </trkpt>
      <trkpt lat="59.21574220221" lon="17.900006023749">
        <ele>118.2</ele>
        <time>2017-08-05T16:17:03Z</time>
      </trkpt>
      <trkpt lat="59.215772041774" lon="17.900022200816">
        <ele>118.2</ele>
        <time>2017-08-05T16:17:05Z</time>
      </trkpt>
      <trkpt lat="59.215798947673" lon="17.900067043981">
        <ele>118.2</ele>
        <time>2017-08-05T16:17:07Z</time>
      </trkpt>
      <trkpt lat="59.215872792212" lon="17.900157233225">
        <ele>118.2</ele>
        <time>2017-08-05T16:17:11Z</time>
      </trkpt>
      <trkpt lat="59.21595174971" lon="17.900280195698">
        <ele>118.2</ele>
        <time>2017-08-05T16:17:16Z</time>
      </trkpt>
      <trkpt lat="59.216037831823" lon="17.900392094063">
        <ele>118.2</ele>
        <time>2017-08-05T16:17:21Z</time>
      </trkpt>
      <trkpt lat="59.216041687497" lon="17.900387400199">
        <ele>118.2</ele>
        <time>2017-08-05T16:17:22Z</time>
      </trkpt>
      <trkpt lat="59.216048225379" lon="17.900392429339">
        <ele>118.2</ele>
        <time>2017-08-05T16:17:31Z</time>
      </trkpt>
      <trkpt lat="59.216087704128" lon="17.900432075726">
        <ele>118.2</ele>
        <time>2017-08-05T16:17:33Z</time>
      </trkpt>
      <trkpt lat="59.216213516447" lon="17.900628128367">
        <ele>118.2</ele>
        <time>2017-08-05T16:17:38Z</time>
      </trkpt>
      <trkpt lat="59.216400935731" lon="17.900996261415">
        <ele>118.2</ele>
        <time>2017-08-05T16:17:45Z</time>
      </trkpt>
      <trkpt lat="59.21653680633" lon="17.901350564328">
        <ele>118.2</ele>
        <time>2017-08-05T16:17:51Z</time>
      </trkpt>
      <trkpt lat="59.216620290054" lon="17.901709561105">
        <ele>118.2</ele>
        <time>2017-08-05T16:17:57Z</time>
      </trkpt>
      <trkpt lat="59.216657757147" lon="17.901956910974">
        <ele>118.2</ele>
        <time>2017-08-05T16:18:02Z</time>
      </trkpt>
      <trkpt lat="59.21677652867" lon="17.902335605216">
        <ele>118.2</ele>
        <time>2017-08-05T16:18:10Z</time>
      </trkpt>
      <trkpt lat="59.216863281335" lon="17.902569376407">
        <ele>118.2</ele>
        <time>2017-08-05T16:18:15Z</time>
      </trkpt>
      <trkpt lat="59.216894545822" lon="17.902882524191">
        <ele>118.2</ele>
        <time>2017-08-05T16:18:20Z</time>
      </trkpt>
      <trkpt lat="59.216889432863" lon="17.903027866337">
        <ele>118.2</ele>
        <time>2017-08-05T16:18:23Z</time>
      </trkpt>
      <trkpt lat="59.216895635469" lon="17.903054185503">
        <ele>118.2</ele>
        <time>2017-08-05T16:18:24Z</time>
      </trkpt>
      <trkpt lat="59.21696260685" lon="17.903196174889">
        <ele>118.2</ele>
        <time>2017-08-05T16:18:31Z</time>
      </trkpt>
      <trkpt lat="59.217033769181" lon="17.903289381617">
        <ele>118.2</ele>
        <time>2017-08-05T16:18:35Z</time>
      </trkpt>
      <trkpt lat="59.217170142694" lon="17.903282089364">
        <ele>118.2</ele>
        <time>2017-08-05T16:18:40Z</time>
      </trkpt>
      <trkpt lat="59.217201574819" lon="17.903288543427">
        <ele>118.2</ele>
        <time>2017-08-05T16:18:41Z</time>
      </trkpt>
      <trkpt lat="59.217345156766" lon="17.903429443166">
        <ele>118.2</ele>
        <time>2017-08-05T16:18:46Z</time>
      </trkpt>
      <trkpt lat="59.217444901376" lon="17.9037132543">
        <ele>118.2</ele>
        <time>2017-08-05T16:18:51Z</time>
      </trkpt>
      <trkpt lat="59.217552860248" lon="17.903974601942">
        <ele>118.2</ele>
        <time>2017-08-05T16:18:57Z</time>
      </trkpt>
      <trkpt lat="59.217702812439" lon="17.904342315895">
        <ele>118.2</ele>
        <time>2017-08-05T16:19:04Z</time>
      </trkpt>
      <trkpt lat="59.217829211491" lon="17.904664767588">
        <ele>118.2</ele>
        <time>2017-08-05T16:19:10Z</time>
      </trkpt>
      <trkpt lat="59.217962148425" lon="17.904995349724">
        <ele>118.2</ele>
        <time>2017-08-05T16:19:17Z</time>
      </trkpt>
      <trkpt lat="59.218097767567" lon="17.90536532679">
        <ele>118.2</ele>
        <time>2017-08-05T16:19:24Z</time>
      </trkpt>
      <trkpt lat="59.218224501895" lon="17.90569222089">
        <ele>118.2</ele>
        <time>2017-08-05T16:19:31Z</time>
      </trkpt>
      <trkpt lat="59.218310835465" lon="17.905917191086">
        <ele>118.2</ele>
        <time>2017-08-05T16:19:36Z</time>
      </trkpt>
      <trkpt lat="59.218452154299" lon="17.906304434866">
        <ele>118.2</ele>
        <time>2017-08-05T16:19:44Z</time>
      </trkpt>
      <trkpt lat="59.218589030726" lon="17.906650188241">
        <ele>118.2</ele>
        <time>2017-08-05T16:19:51Z</time>
      </trkpt>
      <trkpt lat="59.218726745343" lon="17.907031145596">
        <ele>118.2</ele>
        <time>2017-08-05T16:19:59Z</time>
      </trkpt>
      <trkpt lat="59.218845684504" lon="17.907354100203">
        <ele>118.2</ele>
        <time>2017-08-05T16:20:06Z</time>
      </trkpt>
      <trkpt lat="59.218883989787" lon="17.907383353034">
        <ele>118.2</ele>
        <time>2017-08-05T16:20:08Z</time>
      </trkpt>
      <trkpt lat="59.218893964248" lon="17.907376060781">
        <ele>118.2</ele>
        <time>2017-08-05T16:20:10Z</time>
      </trkpt>
      <trkpt lat="59.21890888403" lon="17.907350328348">
        <ele>118.2</ele>
        <time>2017-08-05T16:20:14Z</time>
      </trkpt>
      <trkpt lat="59.218954733023" lon="17.907314705273">
        <ele>118.2</ele>
        <time>2017-08-05T16:20:16Z</time>
      </trkpt>
      <trkpt lat="59.219015082703" lon="17.90724706334">
        <ele>118.2</ele>
        <time>2017-08-05T16:20:19Z</time>
      </trkpt>
      <trkpt lat="59.219078282229" lon="17.907182271253">
        <ele>118.2</ele>
        <time>2017-08-05T16:20:22Z</time>
      </trkpt>
      <trkpt lat="59.219097560599" lon="17.907220408898">
        <ele>118.2</ele>
        <time>2017-08-05T16:20:23Z</time>
      </trkpt>
      <trkpt lat="59.219143325773" lon="17.907268101909">
        <ele>118.2</ele>
        <time>2017-08-05T16:20:25Z</time>
      </trkpt>
      <trkpt lat="59.219170650767" lon="17.907205908211">
        <ele>118.2</ele>
        <time>2017-08-05T16:20:27Z</time>
      </trkpt>
      <trkpt lat="59.219266288246" lon="17.90705595602">
        <ele>118.2</ele>
        <time>2017-08-05T16:20:32Z</time>
      </trkpt>
      <trkpt lat="59.21931456799" lon="17.906990158105">
        <ele>118.2</ele>
        <time>2017-08-05T16:20:34Z</time>
      </trkpt>
      <trkpt lat="59.21933971369" lon="17.906959396532">
        <ele>118.6</ele>
        <time>2017-08-05T16:20:35Z</time>
      </trkpt>
      <trkpt lat="59.219363769743" lon="17.906923522">
        <ele>119.2</ele>
        <time>2017-08-05T16:20:36Z</time>
      </trkpt>
      <trkpt lat="59.219390256547" lon="17.906898795395">
        <ele>119.6</ele>
        <time>2017-08-05T16:20:37Z</time>
      </trkpt>
      <trkpt lat="59.219418755007" lon="17.906880941948">
        <ele>120</ele>
        <time>2017-08-05T16:20:38Z</time>
      </trkpt>
      <trkpt lat="59.219444068345" lon="17.906874823161">
        <ele>120.4</ele>
        <time>2017-08-05T16:20:39Z</time>
      </trkpt>
      <trkpt lat="59.219541885118" lon="17.906860406293">
        <ele>120.4</ele>
        <time>2017-08-05T16:20:43Z</time>
      </trkpt>
      <trkpt lat="59.219579771306" lon="17.906893179522">
        <ele>120.4</ele>
        <time>2017-08-05T16:20:45Z</time>
      </trkpt>
      <trkpt lat="59.219607263938" lon="17.906960905274">
        <ele>120.4</ele>
        <time>2017-08-05T16:20:47Z</time>
      </trkpt>
      <trkpt lat="59.219710361308" lon="17.907139104468">
        <ele>120.4</ele>
        <time>2017-08-05T16:20:53Z</time>
      </trkpt>
      <trkpt lat="59.21979233629" lon="17.907390058554">
        <ele>120.4</ele>
        <time>2017-08-05T16:21:00Z</time>
      </trkpt>
      <trkpt lat="59.21981915837" lon="17.907443954171">
        <ele>120.4</ele>
        <time>2017-08-05T16:21:02Z</time>
      </trkpt>
      <trkpt lat="59.219843046785" lon="17.907396428798">
        <ele>120.4</ele>
        <time>2017-08-05T16:21:04Z</time>
      </trkpt>
      <trkpt lat="59.219837347093" lon="17.907367678881">
        <ele>120.4</ele>
        <time>2017-08-05T16:21:08Z</time>
      </trkpt>
      <trkpt lat="59.219774482843" lon="17.907254020317">
        <ele>120.4</ele>
        <time>2017-08-05T16:21:25Z</time>
      </trkpt>
      <trkpt lat="59.219771046264" lon="17.907195263198">
        <ele>120.4</ele>
        <time>2017-08-05T16:21:28Z</time>
      </trkpt>
      <trkpt lat="59.219766771495" lon="17.907181852158">
        <ele>120.4</ele>
        <time>2017-08-05T16:21:31Z</time>
      </trkpt>
      <trkpt lat="59.21974791222" lon="17.907170368955">
        <ele>120.4</ele>
        <time>2017-08-05T16:22:25Z</time>
      </trkpt>
      <trkpt lat="59.219738943587" lon="17.907158634295">
        <ele>120.4</ele>
        <time>2017-08-05T16:22:26Z</time>
      </trkpt>
      <trkpt lat="59.219659734632" lon="17.907033073433">
        <ele>120.4</ele>
        <time>2017-08-05T16:22:30Z</time>
      </trkpt>
      <trkpt lat="59.219638025511" lon="17.906961492007">
        <ele>120.4</ele>
        <time>2017-08-05T16:22:32Z</time>
      </trkpt>
      <trkpt lat="59.21959787621" lon="17.906894520626">
        <ele>120.4</ele>
        <time>2017-08-05T16:22:34Z</time>
      </trkpt>
      <trkpt lat="59.219572981967" lon="17.906888401839">
        <ele>120.4</ele>
        <time>2017-08-05T16:22:35Z</time>
      </trkpt>
      <trkpt lat="59.219493353917" lon="17.906891838418">
        <ele>120.4</ele>
        <time>2017-08-05T16:22:38Z</time>
      </trkpt>
      <trkpt lat="59.219356896585" lon="17.907000048747">
        <ele>120.4</ele>
        <time>2017-08-05T16:22:43Z</time>
      </trkpt>
      <trkpt lat="59.219212560267" lon="17.907231473006">
        <ele>120.4</ele>
        <time>2017-08-05T16:22:49Z</time>
      </trkpt>
      <trkpt lat="59.219176350459" lon="17.907272460497">
        <ele>120.4</ele>
        <time>2017-08-05T16:22:51Z</time>
      </trkpt>
      <trkpt lat="59.219137626081" lon="17.907212362274">
        <ele>120.4</ele>
        <time>2017-08-05T16:22:53Z</time>
      </trkpt>
      <trkpt lat="59.219093118192" lon="17.90718755185">
        <ele>120.4</ele>
        <time>2017-08-05T16:22:55Z</time>
      </trkpt>
      <trkpt lat="59.219051543968" lon="17.907248655901">
        <ele>120.4</ele>
        <time>2017-08-05T16:22:57Z</time>
      </trkpt>
      <trkpt lat="59.21898599751" lon="17.90728813465">
        <ele>120.4</ele>
        <time>2017-08-05T16:23:01Z</time>
      </trkpt>
      <trkpt lat="59.218987422433" lon="17.907288805202">
        <ele>120.4</ele>
        <time>2017-08-05T16:23:02Z</time>
      </trkpt>
      <trkpt lat="59.218980213999" lon="17.907300456043">
        <ele>120.4</ele>
        <time>2017-08-05T16:23:11Z</time>
      </trkpt>
      <trkpt lat="59.218951966996" lon="17.907342700819">
        <ele>120.4</ele>
        <time>2017-08-05T16:23:13Z</time>
      </trkpt>
      <trkpt lat="59.218882648683" lon="17.907355525126">
        <ele>120.4</ele>
        <time>2017-08-05T16:23:17Z</time>
      </trkpt>
      <trkpt lat="59.218861442476" lon="17.907324679734">
        <ele>120.4</ele>
        <time>2017-08-05T16:23:18Z</time>
      </trkpt>
      <trkpt lat="59.21883763788" lon="17.907257373077">
        <ele>120.4</ele>
        <time>2017-08-05T16:23:20Z</time>
      </trkpt>
      <trkpt lat="59.218811318714" lon="17.907187887126">
        <ele>120.4</ele>
        <time>2017-08-05T16:23:22Z</time>
      </trkpt>
      <trkpt lat="59.218724566049" lon="17.906988230268">
        <ele>120.4</ele>
        <time>2017-08-05T16:23:27Z</time>
      </trkpt>
      <trkpt lat="59.218640747049" lon="17.906798799328">
        <ele>120.4</ele>
        <time>2017-08-05T16:23:32Z</time>
      </trkpt>
      <trkpt lat="59.218563801207" lon="17.906586904896">
        <ele>120.4</ele>
        <time>2017-08-05T16:23:37Z</time>
      </trkpt>
      <trkpt lat="59.218457602534" lon="17.90632253977">
        <ele>120.4</ele>
        <time>2017-08-05T16:23:43Z</time>
      </trkpt>
      <trkpt lat="59.218353247879" lon="17.906062030318">
        <ele>120.4</ele>
        <time>2017-08-05T16:23:49Z</time>
      </trkpt>
      <trkpt lat="59.218251659251" lon="17.905788109826">
        <ele>120.4</ele>
        <time>2017-08-05T16:23:55Z</time>
      </trkpt>
      <trkpt lat="59.218178233807" lon="17.905578646145">
        <ele>120</ele>
        <time>2017-08-05T16:23:59Z</time>
      </trkpt>
      <trkpt lat="59.218161134731" lon="17.905527181279">
        <ele>119.4</ele>
        <time>2017-08-05T16:24:00Z</time>
      </trkpt>
      <trkpt lat="59.218141185809" lon="17.905475045861">
        <ele>119</ele>
        <time>2017-08-05T16:24:01Z</time>
      </trkpt>
      <trkpt lat="59.218126349846" lon="17.905425005918">
        <ele>118.6</ele>
        <time>2017-08-05T16:24:02Z</time>
      </trkpt>
      <trkpt lat="59.21810841258" lon="17.905379073106">
        <ele>118.2</ele>
        <time>2017-08-05T16:24:03Z</time>
      </trkpt>
      <trkpt lat="59.218013864748" lon="17.905129041029">
        <ele>118.2</ele>
        <time>2017-08-05T16:24:08Z</time>
      </trkpt>
      <trkpt lat="59.21790221784" lon="17.904849420845">
        <ele>118.2</ele>
        <time>2017-08-05T16:24:14Z</time>
      </trkpt>
      <trkpt lat="59.217831893699" lon="17.904667449796">
        <ele>118.2</ele>
        <time>2017-08-05T16:24:19Z</time>
      </trkpt>
      <trkpt lat="59.217710775244" lon="17.904371484907">
        <ele>118.2</ele>
        <time>2017-08-05T16:24:26Z</time>
      </trkpt>
      <trkpt lat="59.217635002868" lon="17.904157159724">
        <ele>118.2</ele>
        <time>2017-08-05T16:24:31Z</time>
      </trkpt>
      <trkpt lat="59.217613377566" lon="17.904107706514">
        <ele>118.2</ele>
        <time>2017-08-05T16:24:32Z</time>
      </trkpt>
      <trkpt lat="59.217555877732" lon="17.903967309689">
        <ele>118.2</ele>
        <time>2017-08-05T16:24:35Z</time>
      </trkpt>
      <trkpt lat="59.217459988796" lon="17.903709817721">
        <ele>118.2</ele>
        <time>2017-08-05T16:24:41Z</time>
      </trkpt>
      <trkpt lat="59.217340379083" lon="17.90342491694">
        <ele>118.2</ele>
        <time>2017-08-05T16:24:48Z</time>
      </trkpt>
      <trkpt lat="59.217312802632" lon="17.903361465957">
        <ele>118.2</ele>
        <time>2017-08-05T16:24:50Z</time>
      </trkpt>
      <trkpt lat="59.217260331938" lon="17.90333020147">
        <ele>118.2</ele>
        <time>2017-08-05T16:24:52Z</time>
      </trkpt>
      <trkpt lat="59.217197635326" lon="17.903314694955">
        <ele>118.2</ele>
        <time>2017-08-05T16:24:54Z</time>
      </trkpt>
      <trkpt lat="59.217087916255" lon="17.903310420186">
        <ele>118.2</ele>
        <time>2017-08-05T16:24:58Z</time>
      </trkpt>
      <trkpt lat="59.217001079771" lon="17.903295081309">
        <ele>118.2</ele>
        <time>2017-08-05T16:25:03Z</time>
      </trkpt>
      <trkpt lat="59.216995128622" lon="17.903276808767">
        <ele>118.2</ele>
        <time>2017-08-05T16:25:04Z</time>
      </trkpt>
      <trkpt lat="59.216994625708" lon="17.903278568966">
        <ele>118.2</ele>
        <time>2017-08-05T16:25:05Z</time>
      </trkpt>
      <trkpt lat="59.216982304315" lon="17.903242862072">
        <ele>118.2</ele>
        <time>2017-08-05T16:25:12Z</time>
      </trkpt>
      <trkpt lat="59.216969647646" lon="17.903226601186">
        <ele>118.2</ele>
        <time>2017-08-05T16:25:13Z</time>
      </trkpt>
      <trkpt lat="59.216889097587" lon="17.903029123622">
        <ele>118.2</ele>
        <time>2017-08-05T16:25:18Z</time>
      </trkpt>
      <trkpt lat="59.216886080103" lon="17.902975228005">
        <ele>118.2</ele>
        <time>2017-08-05T16:25:19Z</time>
      </trkpt>
      <trkpt lat="59.216892366528" lon="17.902807925281">
        <ele>118.2</ele>
        <time>2017-08-05T16:25:22Z</time>
      </trkpt>
      <trkpt lat="59.216867472285" lon="17.902598042505">
        <ele>118.2</ele>
        <time>2017-08-05T16:25:26Z</time>
      </trkpt>
      <trkpt lat="59.216830508106" lon="17.902496286239">
        <ele>118.2</ele>
        <time>2017-08-05T16:25:28Z</time>
      </trkpt>
      <trkpt lat="59.216741743785" lon="17.902228065439">
        <ele>118.2</ele>
        <time>2017-08-05T16:25:33Z</time>
      </trkpt>
      <trkpt lat="59.216639819881" lon="17.901901255158">
        <ele>118.2</ele>
        <time>2017-08-05T16:25:40Z</time>
      </trkpt>
      <trkpt lat="59.216606124643" lon="17.901563129312">
        <ele>118.2</ele>
        <time>2017-08-05T16:25:45Z</time>
      </trkpt>
      <trkpt lat="59.216529178801" lon="17.901328352293">
        <ele>118.2</ele>
        <time>2017-08-05T16:25:49Z</time>
      </trkpt>
      <trkpt lat="59.216414011495" lon="17.901006822609">
        <ele>118.2</ele>
        <time>2017-08-05T16:25:55Z</time>
      </trkpt>
      <trkpt lat="59.216260958001" lon="17.900661823605">
        <ele>118.2</ele>
        <time>2017-08-05T16:26:02Z</time>
      </trkpt>
      <trkpt lat="59.21610178572" lon="17.900385975276">
        <ele>118.2</ele>
        <time>2017-08-05T16:26:09Z</time>
      </trkpt>
      <trkpt lat="59.215947391122" lon="17.900130578783">
        <ele>118.2</ele>
        <time>2017-08-05T16:26:16Z</time>
      </trkpt>
      <trkpt lat="59.215893411686" lon="17.900050447819">
        <ele>118.2</ele>
        <time>2017-08-05T16:26:20Z</time>
      </trkpt>
      <trkpt lat="59.215788805574" lon="17.900016165848">
        <ele>118.2</ele>
        <time>2017-08-05T16:26:25Z</time>
      </trkpt>
      <trkpt lat="59.2156843671" lon="17.900019015694">
        <ele>118.2</ele>
        <time>2017-08-05T16:26:30Z</time>
      </trkpt>
      <trkpt lat="59.215672800078" lon="17.900024631567">
        <ele>118.2</ele>
        <time>2017-08-05T16:26:31Z</time>
      </trkpt>
      <trkpt lat="59.215629465655" lon="17.899975178357">
        <ele>118.2</ele>
        <time>2017-08-05T16:26:34Z</time>
      </trkpt>
      <trkpt lat="59.215617144262" lon="17.899956151444">
        <ele>118.2</ele>
        <time>2017-08-05T16:26:35Z</time>
      </trkpt>
      <trkpt lat="59.215567691052" lon="17.899836457912">
        <ele>118.2</ele>
        <time>2017-08-05T16:26:39Z</time>
      </trkpt>
      <trkpt lat="59.215580682997" lon="17.899801589208">
        <ele>118.2</ele>
        <time>2017-08-05T16:26:40Z</time>
      </trkpt>
      <trkpt lat="59.215602811213" lon="17.899708969213">
        <ele>118.2</ele>
        <time>2017-08-05T16:26:45Z</time>
      </trkpt>
      <trkpt lat="59.215601553928" lon="17.899708214842">
        <ele>118.2</ele>
        <time>2017-08-05T16:26:46Z</time>
      </trkpt>
      <trkpt lat="59.219651101275" lon="17.907103146117">
        <ele>118.2</ele>
        <time>2017-08-05T16:34:59Z</time>
      </trkpt>
      <trkpt lat="59.21966828417" lon="17.907115551329">
        <ele>118.2</ele>
        <time>2017-08-05T16:35:00Z</time>
      </trkpt>
      <trkpt lat="59.219710026032" lon="17.907117646804">
        <ele>118.2</ele>
        <time>2017-08-05T16:35:03Z</time>
      </trkpt>
      <trkpt lat="59.21976048507" lon="17.907064924653">
        <ele>118.2</ele>
        <time>2017-08-05T16:35:37Z</time>
      </trkpt>
      <trkpt lat="59.219756377939" lon="17.907054363459">
        <ele>118.2</ele>
        <time>2017-08-05T16:35:38Z</time>
      </trkpt>
      <trkpt lat="59.219758054319" lon="17.907013375968">
        <ele>118.2</ele>
        <time>2017-08-05T16:35:42Z</time>
      </trkpt>
      <trkpt lat="59.219757467586" lon="17.907018405108">
        <ele>118.8</ele>
        <time>2017-08-05T16:35:43Z</time>
      </trkpt>
      <trkpt lat="59.21975545593" lon="17.907033743985">
        <ele>119.4</ele>
        <time>2017-08-05T16:35:44Z</time>
      </trkpt>
      <trkpt lat="59.219753360455" lon="17.907042461161">
        <ele>120</ele>
        <time>2017-08-05T16:35:45Z</time>
      </trkpt>
      <trkpt lat="59.219754198645" lon="17.907038773125">
        <ele>120.6</ele>
        <time>2017-08-05T16:35:46Z</time>
      </trkpt>
      <trkpt lat="59.219755707387" lon="17.907026787008">
        <ele>121.2</ele>
        <time>2017-08-05T16:35:47Z</time>
      </trkpt>
      <trkpt lat="59.219754953016" lon="17.907009185018">
        <ele>120.6</ele>
        <time>2017-08-05T16:35:48Z</time>
      </trkpt>
      <trkpt lat="59.219753108998" lon="17.906997366539">
        <ele>119.8</ele>
        <time>2017-08-05T16:35:49Z</time>
      </trkpt>
      <trkpt lat="59.21975042679" lon="17.906989655191">
        <ele>119.2</ele>
        <time>2017-08-05T16:35:50Z</time>
      </trkpt>
      <trkpt lat="59.219772471187" lon="17.907009268837">
        <ele>120.4</ele>
        <time>2017-08-05T16:36:01Z</time>
      </trkpt>
      <trkpt lat="59.219767442047" lon="17.907022763696">
        <ele>120</ele>
        <time>2017-08-05T16:36:02Z</time>
      </trkpt>
      <trkpt lat="59.219764005468" lon="17.907039443677">
        <ele>119.4</ele>
        <time>2017-08-05T16:36:03Z</time>
      </trkpt>
      <trkpt lat="59.219766603857" lon="17.907058135314">
        <ele>119.8</ele>
        <time>2017-08-05T16:36:04Z</time>
      </trkpt>
      <trkpt lat="59.219772303549" lon="17.90707523439">
        <ele>119.6</ele>
        <time>2017-08-05T16:36:05Z</time>
      </trkpt>
      <trkpt lat="59.219779511983" lon="17.907094764217">
        <ele>119</ele>
        <time>2017-08-05T16:36:06Z</time>
      </trkpt>
      <trkpt lat="59.219784038209" lon="17.907104906316">
        <ele>118.6</ele>
        <time>2017-08-05T16:36:07Z</time>
      </trkpt>
    </trkseg>
  </trk>
</gpx>